Minnesota Lake, Minnesota
Current Conditions -  °F | °C
As of 4:54 PM on Monday 24 Nov 2014 (Local Time) from KACQ Reporting Station
Light Snow Light Snow  
Wind Chill: -6°   Ceiling: 3800
Heat Index: 14°   Visibility: 2.5mi
Dew Point:   Wind: 28mph
Humidity: 79%   Direction: 290°WNW
Pressure: 29.72"   Gusts: 32mph
Location:  43.84°N, 93.83°W
Report Text: KACQ 242254Z AUTO 29024G28KT 2 1/2SM -SN SCT007 SCT014 OVC038 M10/M13 A2972 RMK AO2
Loading
Personal Weather Stations






























Interactive Weather Map New forecast layout! Learn more

10-Day Weather Forecast

Advertisements
Track Severe Weather on mobile